Time;durP1;ratioP1;P1;durP2;ratioP2;P2;SDS_P1;SDS_P2;PMS_P1;PMS_P2;Temp;Humidity;BMP_temperature;BMP_pressure;BME280_temperature;BME280_humidity;BME280_pressure;Samples;Min_cycle;Max_cycle;Signal;HPM_P1;HPM_P2
2023/07/13 00:01:14;;;;;;;7.88;5.93;;;;;;;;;;9943966;28;20430;-73
2023/07/13 00:06:07;;;;;;;6.55;5.90;;;;;;;;;;9945098;28;20039;-75
2023/07/13 00:11:03;;;;;;;7.88;6.18;;;;;;;;;;9949413;28;20554;-72
2023/07/13 00:15:56;;;;;;;7.43;6.72;;;;;;;;;;9952243;28;20042;-71
2023/07/13 00:20:48;;;;;;;6.45;5.85;;;;;;;;;;9951702;28;20142;-69
2023/07/13 00:25:40;;;;;;;6.65;5.95;;;;;;;;;;9952042;28;20046;-69
2023/07/13 00:30:32;;;;;;;10.43;6.50;;;;;;;;;;9951084;28;20429;-70
2023/07/13 00:35:26;;;;;;;8.07;6.55;;;;;;;;;;9975793;28;20038;-70
2023/07/13 00:40:18;;;;;;;8.05;6.32;;;;;;;;;;9951980;28;20043;-70
2023/07/13 00:45:13;;;;;;;8.07;6.95;;;;;;;;;;9950582;28;20458;-70
2023/07/13 00:50:08;;;;;;;6.63;6.03;;;;;;;;;;9950618;28;20094;-70
2023/07/13 00:54:59;;;;;;;8.80;6.28;;;;;;;;;;9934099;28;20051;-71
2023/07/13 00:59:58;;;;;;;6.18;5.57;;;;;;;;;;9987515;28;20415;-72
2023/07/13 01:04:50;;;;;;;7.32;6.10;;;;;;;;;;9947602;28;20047;-72
2023/07/13 01:09:42;;;;;;;7.35;6.57;;;;;;;;;;9937001;28;20174;-71
2023/07/13 01:14:34;;;;;;;7.60;5.68;;;;;;;;;;9951245;28;20074;-72
2023/07/13 01:19:39;;;;;;;7.10;5.82;;;;;;;;;;9943753;28;20113;-73
2023/07/13 01:24:31;;;;;;;9.07;6.65;;;;;;;;;;9933434;28;20098;-72
2023/07/13 01:29:22;;;;;;;6.60;5.88;;;;;;;;;;9950610;28;20086;-72
2023/07/13 01:34:14;;;;;;;7.88;5.57;;;;;;;;;;9951305;28;20134;-73
2023/07/13 01:39:06;;;;;;;8.55;7.28;;;;;;;;;;9935185;28;20058;-70
2023/07/13 01:43:59;;;;;;;6.47;5.43;;;;;;;;;;9986376;28;20049;-72
2023/07/13 01:48:51;;;;;;;5.90;5.38;;;;;;;;;;9956105;28;20078;-72
2023/07/13 01:53:43;;;;;;;6.30;5.32;;;;;;;;;;9936574;28;20047;-71
2023/07/13 01:58:35;;;;;;;8.77;4.72;;;;;;;;;;9949007;28;20051;-71
2023/07/13 02:03:27;;;;;;;10.02;5.78;;;;;;;;;;9932065;28;20046;-74
2023/07/13 02:08:19;;;;;;;5.30;4.78;;;;;;;;;;9931688;28;20057;-73
2023/07/13 02:13:12;;;;;;;7.80;5.68;;;;;;;;;;9949660;28;20119;-72
2023/07/13 02:18:03;;;;;;;8.75;4.72;;;;;;;;;;9949871;28;20118;-73
2023/07/13 02:22:55;;;;;;;6.03;4.45;;;;;;;;;;9972639;28;20045;-72
2023/07/13 02:27:47;;;;;;;5.75;5.18;;;;;;;;;;9946431;28;20047;-73
2023/07/13 02:32:41;;;;;;;6.90;5.13;;;;;;;;;;9930629;28;20043;-73
2023/07/13 02:37:33;;;;;;;5.32;4.82;;;;;;;;;;9947726;28;20400;-74
2023/07/13 02:42:26;;;;;;;9.73;6.40;;;;;;;;;;9942983;28;20054;-72
2023/07/13 02:47:18;;;;;;;6.90;5.10;;;;;;;;;;9904242;28;20077;-71
2023/07/13 02:52:10;;;;;;;5.95;5.18;;;;;;;;;;9967474;28;20373;-73
2023/07/13 02:57:02;;;;;;;8.07;5.43;;;;;;;;;;9944157;28;20388;-73
2023/07/13 03:01:54;;;;;;;9.27;5.13;;;;;;;;;;9950463;28;20073;-72
2023/07/13 03:06:46;;;;;;;5.78;5.13;;;;;;;;;;9930958;28;20051;-71
2023/07/13 03:11:39;;;;;;;5.28;4.68;;;;;;;;;;9946780;28;20061;-72
2023/07/13 03:16:49;;;;;;;8.15;5.25;;;;;;;;;;9892089;29;20168;-71
2023/07/13 03:21:41;;;;;;;6.45;4.43;;;;;;;;;;9945589;28;20043;-70
2023/07/13 03:26:33;;;;;;;4.97;4.22;;;;;;;;;;9946464;28;20050;-72
2023/07/13 03:31:32;;;;;;;6.95;4.53;;;;;;;;;;9965895;28;20470;-71
2023/07/13 03:36:26;;;;;;;5.60;4.70;;;;;;;;;;9948912;28;20061;-71
2023/07/13 03:41:22;;;;;;;4.47;4.07;;;;;;;;;;9961784;28;20301;-72
2023/07/13 03:46:18;;;;;;;5.70;4.72;;;;;;;;;;9946487;28;20101;-72
2023/07/13 03:51:13;;;;;;;5.25;4.50;;;;;;;;;;9959333;28;20046;-71
2023/07/13 03:56:05;;;;;;;4.75;3.92;;;;;;;;;;9953684;28;20646;-73
2023/07/13 04:00:58;;;;;;;6.65;5.80;;;;;;;;;;9964727;28;20038;-72
2023/07/13 04:05:50;;;;;;;6.60;4.55;;;;;;;;;;9975343;28;20123;-71
2023/07/13 04:10:42;;;;;;;6.78;5.00;;;;;;;;;;9963799;28;20081;-72
2023/07/13 04:15:34;;;;;;;5.00;4.40;;;;;;;;;;9977787;28;20043;-73
2023/07/13 04:20:26;;;;;;;4.55;4.10;;;;;;;;;;9953280;28;20443;-72
2023/07/13 04:25:18;;;;;;;6.13;5.45;;;;;;;;;;9953196;28;20413;-70
2023/07/13 04:30:10;;;;;;;5.45;4.95;;;;;;;;;;9953666;28;20436;-72
2023/07/13 04:35:03;;;;;;;4.90;4.50;;;;;;;;;;9953762;28;20101;-72
2023/07/13 04:39:54;;;;;;;5.55;4.68;;;;;;;;;;9954436;28;20049;-72
2023/07/13 04:44:50;;;;;;;4.65;3.97;;;;;;;;;;9953225;28;20042;-74
2023/07/13 04:49:42;;;;;;;5.18;4.53;;;;;;;;;;9949902;28;20563;-73
2023/07/13 04:54:34;;;;;;;4.75;4.07;;;;;;;;;;9982800;28;20232;-73
2023/07/13 04:59:26;;;;;;;4.90;4.50;;;;;;;;;;9950854;28;20110;-73
2023/07/13 05:04:19;;;;;;;4.35;3.95;;;;;;;;;;9952563;28;20071;-73
2023/07/13 05:09:12;;;;;;;4.45;4.05;;;;;;;;;;9950698;28;20055;-70
2023/07/13 05:14:04;;;;;;;7.50;5.53;;;;;;;;;;9956399;28;20187;-71
2023/07/13 05:18:56;;;;;;;5.55;4.45;;;;;;;;;;9961633;28;20097;-67
2023/07/13 05:23:48;;;;;;;5.45;4.80;;;;;;;;;;9958109;28;20035;-72
2023/07/13 05:28:40;;;;;;;4.47;4.03;;;;;;;;;;9958539;28;20476;-72
2023/07/13 05:33:32;;;;;;;4.45;4.05;;;;;;;;;;9970262;28;20051;-74
2023/07/13 05:38:24;;;;;;;5.40;4.35;;;;;;;;;;9949522;28;20069;-70
2023/07/13 05:43:15;;;;;;;4.78;4.13;;;;;;;;;;9955991;28;20943;-67
2023/07/13 05:48:07;;;;;;;5.07;4.57;;;;;;;;;;9948505;28;20575;-68
2023/07/13 05:52:59;;;;;;;5.32;4.82;;;;;;;;;;9950063;28;20043;-69
2023/07/13 05:57:51;;;;;;;6.03;4.47;;;;;;;;;;9948822;28;20051;-69
2023/07/13 06:02:43;;;;;;;5.72;4.78;;;;;;;;;;9950478;28;20051;-68
2023/07/13 06:07:35;;;;;;;7.03;5.10;;;;;;;;;;9948019;28;20078;-68
2023/07/13 06:12:27;;;;;;;4.80;4.35;;;;;;;;;;9949342;28;20413;-68
2023/07/13 06:17:19;;;;;;;8.95;5.07;;;;;;;;;;9974167;28;20085;-68
2023/07/13 06:22:11;;;;;;;5.70;4.55;;;;;;;;;;9967792;28;20049;-68
2023/07/13 06:27:03;;;;;;;7.45;5.00;;;;;;;;;;9948656;28;20045;-68
2023/07/13 06:31:55;;;;;;;5.55;4.82;;;;;;;;;;9945753;28;20078;-69
2023/07/13 06:36:47;;;;;;;7.90;4.57;;;;;;;;;;9959553;28;20058;-68
2023/07/13 06:41:39;;;;;;;11.00;6.20;;;;;;;;;;9945334;28;20386;-68
2023/07/13 06:46:34;;;;;;;4.43;4.03;;;;;;;;;;9930886;28;20078;-68
2023/07/13 06:51:26;;;;;;;6.97;4.43;;;;;;;;;;9947255;28;20043;-69
2023/07/13 06:56:18;;;;;;;5.53;5.03;;;;;;;;;;9946558;28;20042;-68
2023/07/13 07:01:10;;;;;;;6.18;4.22;;;;;;;;;;9946996;28;20047;-68
2023/07/13 07:06:18;;;;;;;8.38;5.30;;;;;;;;;;9955548;28;20061;-68
2023/07/13 07:11:17;;;;;;;11.13;5.07;;;;;;;;;;9986110;28;20046;-68
2023/07/13 07:16:09;;;;;;;10.85;5.88;;;;;;;;;;9944995;28;20054;-73
2023/07/13 07:21:02;;;;;;;9.65;5.60;;;;;;;;;;9944583;28;20043;-74
2023/07/13 07:25:54;;;;;;;6.90;4.88;;;;;;;;;;9946092;28;20039;-72
2023/07/13 07:30:46;;;;;;;12.45;5.53;;;;;;;;;;9944458;28;20059;-72
2023/07/13 07:35:42;;;;;;;10.45;5.95;;;;;;;;;;9948889;28;20113;-73
2023/07/13 07:40:54;;;;;;;15.48;5.30;;;;;;;;;;9947024;28;20074;-73
2023/07/13 07:45:49;;;;;;;11.18;5.40;;;;;;;;;;9946876;28;20038;-73
2023/07/13 07:50:41;;;;;;;7.30;5.55;;;;;;;;;;9945183;28;20527;-73
2023/07/13 07:55:37;;;;;;;6.75;4.95;;;;;;;;;;9947154;28;20086;-72
2023/07/13 08:00:32;;;;;;;8.85;5.35;;;;;;;;;;9942601;28;20054;-74
2023/07/13 08:05:44;;;;;;;12.18;4.78;;;;;;;;;;9945400;28;20041;-74
2023/07/13 08:10:55;;;;;;;10.23;5.22;;;;;;;;;;9930982;28;20069;-74
2023/07/13 08:16:07;;;;;;;8.35;5.35;;;;;;;;;;9948015;28;20085;-74
2023/07/13 08:21:07;;;;;;;9.70;4.60;;;;;;;;;;9952879;28;20417;-75
2023/07/13 08:26:01;;;;;;;11.73;5.15;;;;;;;;;;9947261;28;20050;-73
2023/07/13 08:30:53;;;;;;;12.85;4.80;;;;;;;;;;9949968;28;20251;-75
2023/07/13 08:35:48;;;;;;;11.15;4.95;;;;;;;;;;9962926;28;20142;-72
2023/07/13 08:40:41;;;;;;;10.25;4.90;;;;;;;;;;9952746;28;20058;-73
2023/07/13 08:45:39;;;;;;;7.28;4.72;;;;;;;;;;9952888;28;20699;-72
2023/07/13 08:50:36;;;;;;;9.73;4.97;;;;;;;;;;9950293;28;20782;-62
2023/07/13 08:55:52;;;;;;;8.05;4.80;;;;;;;;;;9937254;28;20053;-64
2023/07/13 09:01:20;;;;;;;5.40;4.25;;;;;;;;;;9969710;28;20051;-62
2023/07/13 09:06:14;;;;;;;5.93;4.13;;;;;;;;;;9930443;28;20066;-61
2023/07/13 09:11:27;;;;;;;8.60;6.03;;;;;;;;;;9964901;28;20054;-63
2023/07/13 09:16:23;;;;;;;6.28;4.80;;;;;;;;;;9929002;28;20046;-63
2023/07/13 09:21:20;;;;;;;7.22;4.78;;;;;;;;;;9944515;28;20047;-61
2023/07/13 09:26:18;;;;;;;11.25;4.93;;;;;;;;;;9926427;28;20047;-60
2023/07/13 09:31:16;;;;;;;11.27;6.70;;;;;;;;;;9968752;28;20070;-63
2023/07/13 09:36:19;;;;;;;10.75;5.38;;;;;;;;;;9957585;28;20317;-60
2023/07/13 09:41:23;;;;;;;9.82;4.72;;;;;;;;;;9946289;28;20074;-61
2023/07/13 09:46:24;;;;;;;8.02;4.78;;;;;;;;;;9943411;28;20070;-62
2023/07/13 09:51:16;;;;;;;6.25;4.18;;;;;;;;;;9943850;28;20573;-63
2023/07/13 09:56:19;;;;;;;7.00;4.72;;;;;;;;;;9945328;28;20145;-63
2023/07/13 10:01:12;;;;;;;7.40;5.38;;;;;;;;;;9943352;28;20489;-62
2023/07/13 10:06:16;;;;;;;8.73;5.20;;;;;;;;;;9945666;28;20042;-59
2023/07/13 10:11:20;;;;;;;6.53;5.18;;;;;;;;;;9926246;28;20057;-61
2023/07/13 10:16:12;;;;;;;14.88;5.65;;;;;;;;;;9910692;28;20055;-63
2023/07/13 10:21:18;;;;;;;7.95;5.07;;;;;;;;;;9907814;28;20039;-61
2023/07/13 10:26:18;;;;;;;9.32;5.63;;;;;;;;;;9907286;28;20077;-60
2023/07/13 10:31:14;;;;;;;8.98;4.72;;;;;;;;;;9906706;28;20099;-60
2023/07/13 10:36:13;;;;;;;9.37;6.20;;;;;;;;;;9906329;28;20470;-61
2023/07/13 10:41:17;;;;;;;25.33;6.75;;;;;;;;;;9907944;28;20051;-61
2023/07/13 10:46:15;;;;;;;9.45;5.97;;;;;;;;;;9906248;28;20051;-60
2023/07/13 10:51:10;;;;;;;11.52;7.22;;;;;;;;;;9919796;28;20146;-62
2023/07/13 10:56:25;;;;;;;9.40;7.25;;;;;;;;;;9933535;28;20047;-63
2023/07/13 11:01:18;;;;;;;11.95;8.30;;;;;;;;;;9895703;28;20051;-62
2023/07/13 11:06:30;;;;;;;11.98;8.48;;;;;;;;;;9918705;28;20123;-61
2023/07/13 11:11:33;;;;;;;13.85;7.88;;;;;;;;;;9941257;28;20050;-61
2023/07/13 11:16:43;;;;;;;9.52;7.57;;;;;;;;;;9947820;28;20054;-62
2023/07/13 11:22:10;;;;;;;9.57;7.72;;;;;;;;;;9940931;28;20047;-61
2023/07/13 11:27:35;;;;;;;12.23;8.85;;;;;;;;;;9956352;28;20454;-62
2023/07/13 11:32:31;;;;;;;11.25;10.25;;;;;;;;;;9943923;28;20061;-64
2023/07/13 11:37:25;;;;;;;8.35;7.55;;;;;;;;;;9944495;28;20050;-61
2023/07/13 11:42:20;;;;;;;13.45;12.05;;;;;;;;;;9947584;28;20795;-60
2023/07/13 11:47:17;;;;;;;17.20;12.70;;;;;;;;;;9953199;28;20049;-61
2023/07/13 11:52:18;;;;;;;24.77;12.67;;;;;;;;;;9942720;28;20106;-61
2023/07/13 11:57:26;;;;;;;22.92;17.08;;;;;;;;;;9960599;28;20043;-60
2023/07/13 12:02:29;;;;;;;17.83;16.08;;;;;;;;;;9946801;28;20466;-60
2023/07/13 12:07:22;;;;;;;19.80;17.80;;;;;;;;;;9965920;28;20039;-62
2023/07/13 12:12:18;;;;;;;20.27;17.27;;;;;;;;;;9955960;28;20043;-63
2023/07/13 12:17:18;;;;;;;18.45;16.50;;;;;;;;;;9949451;28;20410;-61
2023/07/13 12:22:12;;;;;;;19.88;17.75;;;;;;;;;;9954650;28;20049;-61
2023/07/13 12:27:05;;;;;;;19.70;16.65;;;;;;;;;;9971905;28;20050;-60
2023/07/13 12:31:57;;;;;;;24.10;17.80;;;;;;;;;;9953616;28;20043;-63
2023/07/13 12:36:53;;;;;;;25.48;19.85;;;;;;;;;;9962392;28;20057;-62
2023/07/13 12:41:47;;;;;;;19.95;17.23;;;;;;;;;;9950510;28;20058;-63
2023/07/13 12:46:39;;;;;;;26.38;19.27;;;;;;;;;;9964615;28;20137;-61
2023/07/13 12:51:31;;;;;;;24.63;20.55;;;;;;;;;;9956871;28;20234;-61
2023/07/13 12:56:26;;;;;;;20.98;18.65;;;;;;;;;;9948478;28;20058;-62
2023/07/13 13:01:18;;;;;;;21.63;19.15;;;;;;;;;;9949550;28;20425;-62
2023/07/13 13:06:18;;;;;;;22.45;19.15;;;;;;;;;;9964314;28;20061;-62
2023/07/13 13:11:10;;;;;;;23.10;19.42;;;;;;;;;;9950524;28;20050;-61
2023/07/13 13:16:33;;;;;;;22.13;19.88;;;;;;;;;;9949859;28;20434;-61
2023/07/13 13:21:26;;;;;;;22.17;19.88;;;;;;;;;;9948194;28;20046;-60
2023/07/13 13:26:19;;;;;;;24.95;20.30;;;;;;;;;;9950798;28;20484;-59
2023/07/13 13:31:13;;;;;;;25.58;19.27;;;;;;;;;;9961941;28;20393;-61
2023/07/13 13:36:09;;;;;;;26.58;21.25;;;;;;;;;;9954544;28;20046;-61
2023/07/13 13:41:01;;;;;;;30.05;20.83;;;;;;;;;;9935670;28;20122;-61
2023/07/13 13:45:56;;;;;;;20.90;18.90;;;;;;;;;;9951777;28;20076;-62
2023/07/13 13:50:48;;;;;;;23.63;20.88;;;;;;;;;;9966988;28;20665;-61
2023/07/13 13:55:41;;;;;;;24.08;18.67;;;;;;;;;;9955536;28;20634;-61
2023/07/13 14:00:33;;;;;;;22.00;17.30;;;;;;;;;;9963100;28;20102;-62
2023/07/13 14:05:26;;;;;;;20.83;17.75;;;;;;;;;;9955986;28;20054;-62
2023/07/13 14:10:19;;;;;;;21.73;18.50;;;;;;;;;;9943680;28;20461;-63
2023/07/13 14:15:32;;;;;;;20.73;17.27;;;;;;;;;;9942159;28;20098;-63
2023/07/13 14:20:26;;;;;;;22.00;19.02;;;;;;;;;;9956142;28;20046;-71
2023/07/13 14:25:19;;;;;;;20.05;18.02;;;;;;;;;;9957001;28;20050;-67
2023/07/13 14:30:18;;;;;;;26.38;18.17;;;;;;;;;;9964199;28;20096;-69
2023/07/13 14:35:13;;;;;;;26.13;17.88;;;;;;;;;;9951597;28;20134;-72
2023/07/13 14:40:16;;;;;;;18.60;16.80;;;;;;;;;;9957898;28;20142;-73
2023/07/13 14:45:17;;;;;;;23.23;16.35;;;;;;;;;;9930313;28;20047;-72
2023/07/13 14:50:16;;;;;;;19.27;17.15;;;;;;;;;;9948553;28;20047;-72
2023/07/13 14:55:11;;;;;;;28.35;18.30;;;;;;;;;;9945688;28;20078;-69
2023/07/13 15:00:04;;;;;;;18.05;16.23;;;;;;;;;;9944995;28;20055;-72
2023/07/13 15:04:57;;;;;;;17.77;15.68;;;;;;;;;;9942646;28;20042;-71
2023/07/13 15:09:50;;;;;;;20.35;18.35;;;;;;;;;;9947430;28;20054;-71
2023/07/13 15:14:42;;;;;;;19.05;17.08;;;;;;;;;;9946366;28;20071;-71
2023/07/13 15:19:34;;;;;;;18.10;16.30;;;;;;;;;;9946234;28;20038;-71
2023/07/13 15:24:27;;;;;;;19.83;16.98;;;;;;;;;;9946313;28;20094;-71
2023/07/13 15:29:19;;;;;;;23.73;14.70;;;;;;;;;;9947476;28;20051;-72
2023/07/13 15:34:13;;;;;;;21.92;17.63;;;;;;;;;;9947405;28;20043;-71
2023/07/13 15:39:06;;;;;;;17.50;15.75;;;;;;;;;;9964153;28;20057;-71
2023/07/13 15:43:59;;;;;;;17.08;15.30;;;;;;;;;;9953135;28;20046;-74
2023/07/13 15:48:53;;;;;;;15.90;14.32;;;;;;;;;;9951742;28;20043;-71
2023/07/13 15:53:48;;;;;;;16.30;14.48;;;;;;;;;;9952738;28;20553;-71
2023/07/13 15:58:39;;;;;;;23.25;16.00;;;;;;;;;;9967275;28;20440;-72
2023/07/13 16:03:31;;;;;;;16.08;14.23;;;;;;;;;;9948359;28;20046;-72
2023/07/13 16:08:28;;;;;;;16.20;14.52;;;;;;;;;;9947978;28;20050;-72
2023/07/13 16:13:20;;;;;;;16.30;14.57;;;;;;;;;;9932689;28;20039;-72
2023/07/13 16:18:17;;;;;;;14.75;13.25;;;;;;;;;;9952351;28;20055;-72
2023/07/13 16:23:09;;;;;;;16.80;14.15;;;;;;;;;;9959928;28;20089;-72
2023/07/13 16:28:01;;;;;;;16.23;12.68;;;;;;;;;;9994488;28;20357;-72
2023/07/13 16:32:55;;;;;;;17.02;12.98;;;;;;;;;;9964706;28;20050;-68
2023/07/13 16:37:47;;;;;;;15.20;12.13;;;;;;;;;;9952162;28;20051;-67
2023/07/13 16:42:57;;;;;;;13.23;12.02;;;;;;;;;;9947892;28;20544;-68
2023/07/13 16:47:53;;;;;;;14.88;11.80;;;;;;;;;;9953839;28;20050;-67
2023/07/13 16:52:46;;;;;;;22.52;12.55;;;;;;;;;;9975854;28;20049;-68
2023/07/13 16:57:39;;;;;;;34.92;17.00;;;;;;;;;;9950127;28;20070;-67
2023/07/13 17:02:36;;;;;;;33.55;16.70;;;;;;;;;;9948579;28;20047;-67
2023/07/13 17:07:30;;;;;;;26.80;15.68;;;;;;;;;;9951930;28;20047;-67
2023/07/13 17:12:22;;;;;;;24.27;14.98;;;;;;;;;;9952970;28;20055;-68
2023/07/13 17:17:17;;;;;;;20.33;12.13;;;;;;;;;;9952244;28;20047;-68
2023/07/13 17:22:17;;;;;;;22.30;13.40;;;;;;;;;;9951236;28;20417;-68
2023/07/13 17:27:09;;;;;;;17.70;12.30;;;;;;;;;;9951967;28;20042;-69
2023/07/13 17:32:03;;;;;;;23.38;15.60;;;;;;;;;;9951013;28;20050;-68
2023/07/13 17:36:55;;;;;;;24.10;12.05;;;;;;;;;;9949479;28;20047;-68
2023/07/13 17:41:47;;;;;;;15.15;10.52;;;;;;;;;;9950943;28;20496;-68
2023/07/13 17:46:40;;;;;;;16.17;11.48;;;;;;;;;;9949832;28;20050;-69
2023/07/13 17:51:32;;;;;;;17.50;11.88;;;;;;;;;;9950867;28;20042;-69
2023/07/13 17:56:24;;;;;;;11.80;10.60;;;;;;;;;;9953554;28;20049;-68
2023/07/13 18:01:21;;;;;;;17.58;10.77;;;;;;;;;;9956855;28;20039;-68
2023/07/13 18:06:22;;;;;;;14.10;9.93;;;;;;;;;;9961206;28;20434;-69
2023/07/13 18:11:14;;;;;;;16.23;10.77;;;;;;;;;;9974822;28;20113;-69
2023/07/13 18:16:23;;;;;;;15.15;10.70;;;;;;;;;;9976178;28;20105;-69
2023/07/13 18:21:16;;;;;;;12.43;10.25;;;;;;;;;;9964936;28;20417;-69
2023/07/13 18:26:10;;;;;;;20.83;11.10;;;;;;;;;;9964098;28;20055;-70
2023/07/13 18:31:02;;;;;;;14.27;9.48;;;;;;;;;;9956615;28;20859;-70
2023/07/13 18:35:54;;;;;;;19.90;11.27;;;;;;;;;;9960844;28;20484;-72
2023/07/13 18:40:47;;;;;;;19.23;10.55;;;;;;;;;;9963036;28;20461;-70
2023/07/13 18:45:39;;;;;;;23.27;10.63;;;;;;;;;;9951067;28;20047;-66
2023/07/13 18:50:35;;;;;;;17.17;10.25;;;;;;;;;;9952618;23;20058;-73
2023/07/13 18:55:27;;;;;;;15.93;10.45;;;;;;;;;;9911536;28;20070;-71
2023/07/13 19:00:26;;;;;;;18.23;10.23;;;;;;;;;;9913064;28;20383;-75
2023/07/13 19:05:27;;;;;;;19.23;12.07;;;;;;;;;;9917628;28;20035;-75
2023/07/13 19:10:26;;;;;;;15.10;11.30;;;;;;;;;;9914894;28;20058;-67
2023/07/13 19:15:30;;;;;;;16.75;11.25;;;;;;;;;;9923530;28;20051;-76
2023/07/13 19:20:29;;;;;;;12.07;9.70;;;;;;;;;;9930701;28;20054;-74
2023/07/13 19:25:22;;;;;;;11.80;9.68;;;;;;;;;;9930491;28;20046;-74
2023/07/13 19:30:15;;;;;;;18.17;10.38;;;;;;;;;;9911495;28;20394;-72
2023/07/13 19:35:08;;;;;;;13.85;8.95;;;;;;;;;;9931530;28;20094;-75
2023/07/13 19:40:10;;;;;;;14.68;10.48;;;;;;;;;;9928085;28;20379;-76
2023/07/13 19:45:04;;;;;;;12.82;9.98;;;;;;;;;;9915646;28;20046;-76
2023/07/13 19:49:58;;;;;;;15.25;10.52;;;;;;;;;;9918156;28;20105;-74
2023/07/13 19:54:54;;;;;;;11.88;9.30;;;;;;;;;;9930097;28;20063;-74
2023/07/13 19:59:51;;;;;;;17.20;10.48;;;;;;;;;;9930112;28;20043;-72
2023/07/13 20:31:19;;;;;;;11.85;10.13;;;;;;;;;;9880723;29;20038;-77
2023/07/13 20:36:15;;;;;;;11.77;8.73;;;;;;;;;;9881897;29;20083;-78
2023/07/13 21:07:58;;;;;;;13.43;9.20;;;;;;;;;;9873028;29;20079;-74
2023/07/13 21:12:51;;;;;;;12.02;9.20;;;;;;;;;;9950734;28;20062;-50
2023/07/13 21:17:49;;;;;;;12.32;9.40;;;;;;;;;;9953433;28;20424;-52
2023/07/13 21:22:41;;;;;;;16.58;9.07;;;;;;;;;;9934255;28;20481;-52
2023/07/13 21:27:33;;;;;;;12.70;9.75;;;;;;;;;;9953823;28;20081;-52
2023/07/13 21:32:25;;;;;;;11.63;8.85;;;;;;;;;;9951610;28;20125;-55
2023/07/13 21:37:18;;;;;;;10.40;8.70;;;;;;;;;;9949003;28;20102;-49
2023/07/13 21:42:12;;;;;;;19.00;9.40;;;;;;;;;;9962123;28;20057;-51
2023/07/13 21:47:04;;;;;;;16.23;8.57;;;;;;;;;;9947158;28;20049;-54
2023/07/13 21:51:56;;;;;;;14.45;8.32;;;;;;;;;;9950205;28;20039;-50
2023/07/13 21:56:48;;;;;;;11.20;7.82;;;;;;;;;;9964328;28;20093;-51
2023/07/13 22:01:40;;;;;;;18.05;8.15;;;;;;;;;;9979346;28;20129;-53
2023/07/13 22:06:32;;;;;;;13.48;8.60;;;;;;;;;;9990221;28;20747;-50
2023/07/13 22:11:25;;;;;;;16.40;8.40;;;;;;;;;;9987765;28;20058;-48
2023/07/13 22:16:25;;;;;;;12.57;8.27;;;;;;;;;;9953546;28;20055;-46
2023/07/13 22:21:18;;;;;;;21.00;10.15;;;;;;;;;;9970915;28;20050;-48
2023/07/13 22:26:37;;;;;;;11.40;7.35;;;;;;;;;;9988394;28;20486;-48
2023/07/13 22:31:29;;;;;;;12.35;8.85;;;;;;;;;;9969961;28;20053;-47
2023/07/13 22:36:21;;;;;;;8.15;7.30;;;;;;;;;;9988641;28;20053;-47
2023/07/13 22:41:17;;;;;;;9.00;7.35;;;;;;;;;;9986380;28;20039;-46
2023/07/13 22:46:18;;;;;;;9.57;7.28;;;;;;;;;;9968266;28;20046;-49
2023/07/13 22:51:16;;;;;;;9.02;7.90;;;;;;;;;;9978096;28;20093;-49
2023/07/13 22:56:09;;;;;;;9.52;7.03;;;;;;;;;;9965524;28;20050;-49
2023/07/13 23:01:01;;;;;;;8.98;7.15;;;;;;;;;;9982832;28;20046;-50
2023/07/13 23:05:54;;;;;;;7.65;6.80;;;;;;;;;;9987538;28;20046;-48
2023/07/13 23:10:47;;;;;;;9.45;7.07;;;;;;;;;;9987625;28;20383;-47
2023/07/13 23:15:39;;;;;;;8.05;7.25;;;;;;;;;;9984623;28;20054;-47
2023/07/13 23:20:33;;;;;;;7.47;6.72;;;;;;;;;;9985783;28;20065;-48
2023/07/13 23:25:28;;;;;;;8.73;6.75;;;;;;;;;;9987253;28;20085;-51
2023/07/13 23:30:23;;;;;;;8.82;6.57;;;;;;;;;;9984854;28;20050;-48
2023/07/13 23:35:16;;;;;;;11.02;8.63;;;;;;;;;;9985521;28;20050;-48
2023/07/13 23:40:27;;;;;;;8.43;7.05;;;;;;;;;;9986062;28;20492;-49
2023/07/13 23:45:23;;;;;;;8.82;6.95;;;;;;;;;;9984689;28;20046;-49
2023/07/13 23:50:18;;;;;;;14.52;7.45;;;;;;;;;;9968202;28;20043;-48
2023/07/13 23:55:12;;;;;;;6.97;6.32;;;;;;;;;;9969015;28;20420;-51
